createdAt,value
2022-09-17T10:35:29.088Z,99506.22
2022-09-17T10:40:36.067Z,99534.41
2022-09-17T10:45:46.756Z,99524.88
2022-09-17T10:50:55.700Z,99526.38
2022-09-17T10:56:07.847Z,99533.47
2022-09-17T11:01:29.360Z,99532.19
2022-09-17T11:07:25.248Z,99533.28
2022-09-17T11:12:43.495Z,99546.91
2022-09-17T11:18:06.409Z,99551.91
2022-09-17T11:23:34.179Z,99542.69
2022-09-17T11:28:55.009Z,99549.47
2022-09-17T11:34:28.246Z,99543.38
2022-09-17T11:39:43.224Z,99534.31
2022-09-17T11:44:53.316Z,99518.06
2022-09-17T11:50:05.402Z,99515.84
2022-09-17T11:55:23.722Z,99508.06
2022-09-17T12:00:31.833Z,99517.34
2022-09-17T12:05:42.257Z,99512.59
2022-09-17T12:10:55.100Z,99505.41
2022-09-17T12:16:17.461Z,99494.22
2022-09-17T12:21:31.335Z,99492.00
2022-09-17T12:27:21.538Z,99485.56
2022-09-17T12:32:58.993Z,99493.16
2022-09-17T12:38:27.178Z,99509.09
2022-09-17T12:44:04.476Z,99512.00
2022-09-17T12:49:47.287Z,99511.91
2022-09-17T12:55:25.259Z,99504.03
2022-09-17T13:00:41.745Z,99499.47
2022-09-17T13:06:28.386Z,99497.41
2022-09-17T13:12:05.866Z,99491.31
2022-09-17T13:17:25.196Z,99486.22
2022-09-17T13:22:34.564Z,99487.91
2022-09-17T13:27:42.126Z,99494.00
2022-09-17T13:32:53.377Z,99501.16
2022-09-17T13:38:02.432Z,99497.75
2022-09-17T13:43:13.882Z,99497.56
2022-09-17T13:48:26.548Z,99498.25
2022-09-17T13:53:35.192Z,99502.47
2022-09-17T13:58:43.623Z,99493.09
2022-09-17T14:03:57.372Z,99500.31
2022-09-17T14:09:38.513Z,99492.59
2022-09-17T14:14:53.674Z,99492.88
2022-09-17T14:20:02.417Z,99496.41
2022-09-17T14:25:19.005Z,99488.16
2022-09-17T14:30:27.911Z,99492.38
2022-09-17T14:35:41.376Z,99489.66
2022-09-17T14:40:49.721Z,99481.59
2022-09-17T14:45:56.468Z,99477.97
2022-09-17T14:51:29.391Z,99479.66
2022-09-17T14:56:49.468Z,99478.53
2022-09-17T15:01:56.253Z,99489.03
2022-09-17T15:07:15.172Z,99485.56
2022-09-17T15:12:23.639Z,99481.25
2022-09-17T15:17:30.871Z,99470.94
2022-09-17T15:22:42.687Z,99461.38
2022-09-17T15:27:51.465Z,99474.41
2022-09-17T15:33:00.349Z,99459.50
2022-09-17T15:38:24.248Z,99455.19
2022-09-17T15:43:33.371Z,99462.13
2022-09-17T15:48:41.814Z,99475.25
2022-09-17T15:53:57.298Z,99484.06
2022-09-17T15:59:05.914Z,99479.81
2022-09-17T16:04:31.367Z,99478.16
2022-09-17T16:09:59.678Z,99486.19
2022-09-17T16:15:08.217Z,99495.25
2022-09-17T16:20:22.290Z,99500.88
2022-09-17T16:25:31.006Z,99495.28
2022-09-17T16:30:37.397Z,99495.91
2022-09-17T16:35:45.347Z,99473.16
2022-09-17T16:40:53.285Z,99477.91
2022-09-17T16:46:03.179Z,99484.31
2022-09-17T16:51:10.435Z,99485.53
2022-09-17T16:56:18.686Z,99490.22
2022-09-17T17:01:25.440Z,99479.59
2022-09-17T17:06:32.666Z,99476.03
2022-09-17T17:11:41.113Z,99490.91
2022-09-17T17:16:47.775Z,99493.78
2022-09-17T17:21:54.780Z,99487.91
2022-09-17T17:27:04.053Z,99487.34
2022-09-17T17:32:10.658Z,99487.25
2022-09-17T17:37:18.860Z,99489.72
2022-09-17T17:42:36.049Z,99502.50
2022-09-17T17:47:44.607Z,99500.81
2022-09-17T17:52:50.924Z,99489.03
2022-09-17T17:58:01.675Z,99489.66
2022-09-17T18:03:08.195Z,99474.91
2022-09-17T18:08:17.897Z,99473.50
2022-09-17T18:13:26.364Z,99469.03
2022-09-17T18:18:43.610Z,99472.28
2022-09-17T18:23:52.064Z,99478.16
2022-09-17T18:29:03.237Z,99486.06
2022-09-17T18:34:14.874Z,99490.06
2022-09-17T18:44:51.039Z,99504.50
2022-09-17T18:49:57.190Z,99512.97
2022-09-17T18:55:04.042Z,99506.13
2022-09-17T19:00:13.423Z,99506.34
2022-09-17T19:05:20.420Z,99502.22
2022-09-17T19:10:27.921Z,99500.16
2022-09-17T19:15:36.267Z,99489.97
2022-09-17T19:20:44.125Z,99478.22
2022-09-17T19:25:51.151Z,99478.56
2022-09-17T19:30:59.097Z,99476.72
2022-09-17T19:36:07.642Z,99467.63
2022-09-17T19:41:16.508Z,99471.03
2022-09-17T19:46:28.271Z,99462.25
2022-09-17T19:51:36.005Z,99462.69
2022-09-17T19:56:45.022Z,99464.69
2022-09-17T20:01:53.272Z,99467.53
2022-09-17T20:07:02.094Z,99462.72
2022-09-17T20:12:14.136Z,99452.63
2022-09-17T20:17:25.873Z,99465.00
2022-09-17T20:22:32.506Z,99471.69
2022-09-17T20:27:39.093Z,99469.78
2022-09-17T20:32:46.616Z,99467.16
2022-09-17T20:38:57.492Z,99469.22
2022-09-17T20:43:20.779Z,99470.28
2022-09-17T20:48:29.453Z,99467.47
2022-09-17T20:53:39.034Z,99469.22
2022-09-17T20:58:48.829Z,99473.53
2022-09-17T21:03:56.532Z,99471.69
2022-09-17T21:09:03.840Z,99471.34
2022-09-17T21:14:10.943Z,99470.13
2022-09-17T21:19:20.173Z,99474.97
2022-09-17T21:24:26.597Z,99474.31
2022-09-17T21:29:32.661Z,99471.13
2022-09-17T21:34:41.226Z,99470.13
2022-09-17T21:39:50.582Z,99474.94
2022-09-17T21:44:59.199Z,99470.72
2022-09-17T21:50:09.467Z,99476.19
2022-09-17T21:55:19.280Z,99473.72
2022-09-17T22:00:28.144Z,99473.56
2022-09-17T22:05:36.605Z,99476.00
2022-09-17T22:10:45.663Z,99475.84
2022-09-17T22:15:58.940Z,99475.25
2022-09-17T22:21:16.497Z,99467.31
2022-09-17T22:26:25.512Z,99461.25
2022-09-17T22:31:31.726Z,99463.66
2022-09-17T22:36:42.433Z,99452.59
2022-09-17T22:41:50.412Z,99445.63
2022-09-17T22:46:57.126Z,99445.78
2022-09-17T22:52:05.223Z,99445.84
2022-09-17T22:57:11.608Z,99439.06
2022-09-17T23:02:17.844Z,99429.25
2022-09-17T23:07:25.362Z,99432.72
2022-09-17T23:12:31.561Z,99428.03
2022-09-17T23:17:37.629Z,99442.84
2022-09-17T23:22:45.155Z,99440.84
2022-09-17T23:27:51.227Z,99439.28
2022-09-17T23:32:58.990Z,99429.78
2022-09-17T23:38:06.826Z,99431.31
2022-09-17T23:43:12.653Z,99422.75
2022-09-17T23:48:18.558Z,99424.56
2022-09-17T23:53:26.381Z,99422.28
2022-09-17T23:58:33.234Z,99416.50
